Time;durP1;ratioP1;P1;durP2;ratioP2;P2;SDS_P1;SDS_P2;PMS_P1;PMS_P2;Temp;Humidity;BMP_temperature;BMP_pressure;BME280_temperature;BME280_humidity;BME280_pressure;Samples;Min_cycle;Max_cycle;Signal;HPM_P1;HPM_P2
2023/12/18 00:02:06;;;;;;;7.80;3.13;;;8.80;99.90;;;;;;5093734;28;20418;-71
2023/12/18 00:04:32;;;;;;;14.35;4.22;;;8.80;99.90;;;;;;5093528;28;20051;-71
2023/12/18 00:06:58;;;;;;;10.83;3.70;;;8.80;99.90;;;;;;5092613;28;20052;-68
2023/12/18 00:09:23;;;;;;;10.77;4.33;;;8.80;99.90;;;;;;5093528;28;20090;-70
2023/12/18 00:11:49;;;;;;;9.70;4.27;;;8.80;99.90;;;;;;5093000;28;20063;-69
2023/12/18 00:14:15;;;;;;;15.75;4.53;;;8.70;99.90;;;;;;5096731;28;20044;-70
2023/12/18 00:16:41;;;;;;;15.53;4.97;;;8.70;99.90;;;;;;5097169;28;20056;-69
2023/12/18 00:19:07;;;;;;;14.33;5.37;;;8.70;99.90;;;;;;5097448;28;20056;-70
2023/12/18 00:21:32;;;;;;;15.03;5.03;;;8.70;99.90;;;;;;5097205;28;20055;-70
2023/12/18 00:23:58;;;;;;;13.40;4.47;;;8.70;99.90;;;;;;5097058;28;20093;-68
2023/12/18 00:26:24;;;;;;;15.33;4.17;;;8.60;99.90;;;;;;5097046;28;20541;-70
2023/12/18 00:28:49;;;;;;;11.20;4.30;;;8.70;99.90;;;;;;5096097;28;20395;-71
2023/12/18 00:31:15;;;;;;;12.73;4.50;;;8.60;99.90;;;;;;5096695;28;20395;-66
2023/12/18 00:33:41;;;;;;;10.73;4.35;;;8.70;99.90;;;;;;5096890;28;20128;-68
2023/12/18 00:36:07;;;;;;;9.60;4.20;;;8.60;99.90;;;;;;5096801;28;20440;-68
2023/12/18 00:38:33;;;;;;;12.77;4.70;;;8.60;99.90;;;;;;5096132;28;20329;-70
2023/12/18 00:40:59;;;;;;;9.25;4.20;;;8.60;99.90;;;;;;5096818;28;20274;-69
2023/12/18 00:43:25;;;;;;;12.88;4.28;;;8.70;99.90;;;;;;5096892;28;20119;-70
2023/12/18 00:45:51;;;;;;;12.83;4.27;;;8.60;99.90;;;;;;5096835;28;20036;-69
2023/12/18 00:48:16;;;;;;;13.03;4.23;;;8.60;99.90;;;;;;5096967;28;20044;-68
2023/12/18 00:50:42;;;;;;;12.70;4.20;;;8.60;99.90;;;;;;5096836;28;20039;-67
2023/12/18 00:53:08;;;;;;;11.33;4.27;;;8.60;99.90;;;;;;5096599;28;20406;-70
2023/12/18 00:55:33;;;;;;;10.07;4.70;;;8.60;99.90;;;;;;5096512;28;20044;-70
2023/12/18 00:57:59;;;;;;;10.40;4.20;;;8.60;99.90;;;;;;5096314;28;20071;-70
2023/12/18 01:00:25;;;;;;;13.53;4.10;;;8.60;99.90;;;;;;5095373;28;20550;-68
2023/12/18 01:02:50;;;;;;;13.37;4.33;;;8.70;99.90;;;;;;5096490;28;20056;-68
2023/12/18 01:05:16;;;;;;;11.50;4.43;;;8.60;99.90;;;;;;5096432;28;20097;-71
2023/12/18 01:07:42;;;;;;;10.00;4.03;;;8.60;99.90;;;;;;5095163;28;20048;-67
2023/12/18 01:10:08;;;;;;;15.70;4.47;;;8.60;99.90;;;;;;5096205;28;20058;-67
2023/12/18 01:12:34;;;;;;;10.65;3.90;;;8.60;99.90;;;;;;5096263;28;20119;-67
2023/12/18 01:15:00;;;;;;;13.57;4.32;;;8.60;99.90;;;;;;5096344;28;20048;-68
2023/12/18 01:17:26;;;;;;;12.97;3.87;;;8.70;99.90;;;;;;5096043;28;20392;-69
2023/12/18 01:19:51;;;;;;;12.97;4.27;;;8.60;99.90;;;;;;5096075;28;20044;-69
2023/12/18 01:22:17;;;;;;;12.10;3.83;;;8.60;99.90;;;;;;5095063;28;20044;-70
2023/12/18 01:24:43;;;;;;;11.43;4.00;;;8.60;99.90;;;;;;5094808;28;20100;-66
2023/12/18 01:27:08;;;;;;;11.30;3.43;;;8.70;99.90;;;;;;5095852;28;20051;-69
2023/12/18 01:29:38;;;;;;;14.63;3.50;;;8.60;99.90;;;;;;5095891;28;20098;-68
2023/12/18 01:32:04;;;;;;;9.85;3.58;;;8.60;99.90;;;;;;5095846;28;20122;-67
2023/12/18 01:34:29;;;;;;;10.53;4.40;;;8.60;99.90;;;;;;5095263;28;20119;-68
2023/12/18 01:36:55;;;;;;;9.17;3.77;;;8.60;99.90;;;;;;5094560;28;20047;-68
2023/12/18 01:39:21;;;;;;;13.63;3.90;;;8.70;99.90;;;;;;5095719;28;20048;-66
2023/12/18 01:41:47;;;;;;;12.93;4.57;;;8.60;99.90;;;;;;5095997;28;20430;-68
2023/12/18 01:44:12;;;;;;;14.53;3.83;;;8.70;99.90;;;;;;5095667;28;20157;-67
2023/12/18 01:46:38;;;;;;;10.03;3.37;;;8.70;99.90;;;;;;5095678;28;20093;-69
2023/12/18 01:49:04;;;;;;;8.65;3.42;;;8.70;99.90;;;;;;5095763;28;20044;-68
2023/12/18 01:51:30;;;;;;;12.17;3.63;;;8.70;99.90;;;;;;5095491;28;20372;-69
2023/12/18 01:53:58;;;;;;;7.97;3.40;;;8.70;99.90;;;;;;5095438;28;20040;-68
2023/12/18 01:56:25;;;;;;;10.27;3.67;;;8.70;99.90;;;;;;5094607;28;20128;-71
2023/12/18 01:58:53;;;;;;;9.93;3.58;;;8.70;99.90;;;;;;5095594;28;20086;-71
2023/12/18 02:01:19;;;;;;;10.65;3.55;;;8.70;99.90;;;;;;5095138;28;20449;-69
2023/12/18 02:03:45;;;;;;;11.40;3.77;;;8.70;99.90;;;;;;5095284;28;20044;-68
2023/12/18 02:06:13;;;;;;;11.07;3.55;;;8.70;99.90;;;;;;5095330;28;20051;-68
2023/12/18 02:08:39;;;;;;;9.18;3.30;;;8.70;99.90;;;;;;5094992;28;20526;-68
2023/12/18 02:11:05;;;;;;;10.40;3.97;;;8.70;99.90;;;;;;5095187;28;20083;-68
2023/12/18 02:13:30;;;;;;;14.18;3.75;;;8.70;99.90;;;;;;5095124;28;20085;-68
2023/12/18 02:15:58;;;;;;;6.63;2.93;;;8.70;99.90;;;;;;5095082;28;20083;-69
2023/12/18 02:18:24;;;;;;;12.32;3.53;;;8.70;99.90;;;;;;5095133;28;20064;-71
2023/12/18 02:20:49;;;;;;;11.70;3.47;;;8.70;99.90;;;;;;5095172;28;20074;-70
2023/12/18 02:23:15;;;;;;;7.67;3.10;;;8.70;99.90;;;;;;5094742;28;20483;-70
2023/12/18 02:25:41;;;;;;;10.03;3.83;;;8.70;99.90;;;;;;5076837;28;20047;-69
2023/12/18 02:28:10;;;;;;;14.50;3.53;;;8.70;99.90;;;;;;5095051;28;20226;-70
2023/12/18 02:30:36;;;;;;;9.57;3.15;;;8.70;99.90;;;;;;5093890;28;20052;-70
2023/12/18 02:33:01;;;;;;;6.33;2.87;;;8.70;99.90;;;;;;5094659;28;20494;-67
2023/12/18 02:35:27;;;;;;;9.43;3.40;;;8.70;99.90;;;;;;5094312;28;20032;-72
2023/12/18 02:37:53;;;;;;;8.33;3.13;;;8.70;99.90;;;;;;5094335;28;20043;-69
2023/12/18 02:40:18;;;;;;;9.33;2.97;;;8.70;99.90;;;;;;5094137;28;20040;-69
2023/12/18 02:42:44;;;;;;;9.87;2.70;;;8.70;99.90;;;;;;5094626;28;20048;-71
2023/12/18 02:45:10;;;;;;;7.63;2.60;;;8.70;99.90;;;;;;5094501;28;20040;-69
2023/12/18 02:47:36;;;;;;;8.20;2.90;;;8.70;99.90;;;;;;5094308;28;20533;-69
2023/12/18 02:50:02;;;;;;;7.82;2.80;;;8.70;99.90;;;;;;5094359;28;20097;-68
2023/12/18 02:52:28;;;;;;;8.77;2.90;;;8.70;99.90;;;;;;5093260;28;20048;-70
2023/12/18 02:54:53;;;;;;;8.70;2.50;;;8.80;99.90;;;;;;5093524;28;20059;-70
2023/12/18 02:57:19;;;;;;;8.03;2.70;;;8.70;99.90;;;;;;5094182;28;20134;-67
2023/12/18 02:59:45;;;;;;;6.07;2.73;;;8.80;99.90;;;;;;5094497;28;20040;-69
2023/12/18 03:02:10;;;;;;;10.07;2.37;;;8.80;99.90;;;;;;5093180;28;20055;-71
2023/12/18 03:04:40;;;;;;;10.37;2.70;;;8.80;99.90;;;;;;5094207;28;20036;-69
2023/12/18 03:07:07;;;;;;;7.53;2.60;;;8.80;99.90;;;;;;5094060;28;20040;-69
2023/12/18 03:09:32;;;;;;;8.25;2.50;;;8.80;99.90;;;;;;5094314;28;20483;-69
2023/12/18 03:11:58;;;;;;;7.07;2.40;;;8.80;99.90;;;;;;5094515;28;20089;-70
2023/12/18 03:14:23;;;;;;;9.53;2.40;;;8.80;99.90;;;;;;5092773;28;20048;-71
2023/12/18 03:16:49;;;;;;;7.00;2.30;;;8.80;99.90;;;;;;5093951;28;20074;-70
2023/12/18 03:19:15;;;;;;;8.53;3.03;;;8.80;99.90;;;;;;5093990;28;20502;-69
2023/12/18 03:21:41;;;;;;;10.90;2.92;;;8.80;99.90;;;;;;5093831;28;20059;-73
2023/12/18 03:24:07;;;;;;;7.67;2.97;;;8.80;99.90;;;;;;5093994;28;20048;-70
2023/12/18 03:26:33;;;;;;;8.53;2.40;;;8.80;99.90;;;;;;5094187;28;20287;-71
2023/12/18 03:28:58;;;;;;;11.93;2.80;;;8.80;99.90;;;;;;5093842;28;20097;-70
2023/12/18 03:31:24;;;;;;;9.43;2.33;;;8.80;99.90;;;;;;5092905;28;20048;-70
2023/12/18 03:33:50;;;;;;;8.13;2.80;;;8.80;99.90;;;;;;5094018;28;20449;-71
2023/12/18 03:36:15;;;;;;;8.10;2.30;;;8.80;99.90;;;;;;5092316;28;20052;-70
2023/12/18 03:38:41;;;;;;;8.57;2.30;;;8.80;99.90;;;;;;5075950;28;20383;-69
2023/12/18 03:41:06;;;;;;;10.47;2.90;;;8.80;99.90;;;;;;5093743;28;20043;-71
2023/12/18 03:43:32;;;;;;;7.37;2.60;;;8.80;99.90;;;;;;5092449;28;20498;-71
2023/12/18 03:45:58;;;;;;;8.37;2.57;;;8.80;99.90;;;;;;5093826;28;20044;-71
2023/12/18 03:48:23;;;;;;;6.13;2.23;;;8.80;99.90;;;;;;5095546;28;20506;-70
2023/12/18 03:50:49;;;;;;;7.60;2.50;;;8.80;99.90;;;;;;5096754;28;20486;-71
2023/12/18 03:53:15;;;;;;;10.03;2.93;;;8.80;99.90;;;;;;5096623;28;20043;-71
2023/12/18 03:55:40;;;;;;;7.63;2.60;;;8.80;99.90;;;;;;5097416;28;20097;-70
2023/12/18 03:58:06;;;;;;;11.13;2.67;;;8.80;99.90;;;;;;5096852;28;20052;-69
2023/12/18 04:00:32;;;;;;;6.83;2.57;;;8.80;99.90;;;;;;5097696;28;20047;-70
2023/12/18 04:02:57;;;;;;;11.57;3.17;;;8.80;99.90;;;;;;5097697;28;20047;-70
2023/12/18 04:05:26;;;;;;;8.17;2.73;;;8.80;99.90;;;;;;5097443;28;20040;-68
2023/12/18 04:07:51;;;;;;;8.73;2.67;;;8.80;99.90;;;;;;5096119;28;20127;-72
2023/12/18 04:10:17;;;;;;;8.53;2.40;;;8.80;99.90;;;;;;5096365;28;20132;-69
2023/12/18 04:12:43;;;;;;;9.63;2.67;;;8.80;99.90;;;;;;5096528;28;20082;-69
2023/12/18 04:15:09;;;;;;;11.70;3.00;;;8.80;99.90;;;;;;5096340;28;20097;-69
2023/12/18 04:17:36;;;;;;;12.00;2.63;;;8.80;99.90;;;;;;5097335;28;20510;-71
2023/12/18 04:20:02;;;;;;;11.10;2.53;;;8.80;99.90;;;;;;5097087;28;20044;-71
2023/12/18 04:22:28;;;;;;;9.57;3.08;;;8.80;99.90;;;;;;5097718;28;20040;-69
2023/12/18 04:24:53;;;;;;;7.97;2.40;;;8.90;99.90;;;;;;5097202;28;20055;-69
2023/12/18 04:27:19;;;;;;;8.93;2.47;;;8.90;99.90;;;;;;5096236;28;20105;-71
2023/12/18 04:29:44;;;;;;;12.57;3.30;;;8.80;99.90;;;;;;5097133;28;20055;-71
2023/12/18 04:32:10;;;;;;;11.60;2.80;;;8.80;99.90;;;;;;5097036;28;20554;-71
2023/12/18 04:34:36;;;;;;;10.33;2.67;;;8.80;99.90;;;;;;5097079;28;20075;-70
2023/12/18 04:37:01;;;;;;;8.77;3.00;;;8.90;99.90;;;;;;5097220;28;20471;-69
2023/12/18 04:39:27;;;;;;;7.37;2.47;;;8.80;99.90;;;;;;5096189;28;20483;-72
2023/12/18 04:41:53;;;;;;;13.93;3.53;;;8.80;99.90;;;;;;5095793;28;20126;-70
2023/12/18 04:44:18;;;;;;;8.83;2.67;;;8.80;99.90;;;;;;5096952;28;20093;-72
2023/12/18 04:46:44;;;;;;;11.40;2.90;;;8.80;99.90;;;;;;5095841;28;20060;-70
2023/12/18 04:49:10;;;;;;;9.27;3.03;;;8.80;99.90;;;;;;5096702;28;20048;-72
2023/12/18 04:51:35;;;;;;;10.27;2.80;;;8.80;99.90;;;;;;5096600;28;20102;-69
2023/12/18 04:54:01;;;;;;;6.37;2.60;;;8.80;99.90;;;;;;5095542;28;20470;-68
2023/12/18 04:56:27;;;;;;;8.87;3.20;;;8.80;99.90;;;;;;5096686;28;20297;-72
2023/12/18 04:58:53;;;;;;;7.40;2.67;;;8.90;99.90;;;;;;5095402;28;20491;-72
2023/12/18 05:01:18;;;;;;;7.28;3.00;;;8.80;99.90;;;;;;5096468;28;20044;-71
2023/12/18 05:03:44;;;;;;;7.57;2.90;;;8.90;99.90;;;;;;5095462;28;20444;-70
2023/12/18 05:06:26;;;;;;;11.13;3.37;;;8.80;99.90;;;;;;5096222;28;20062;-72
2023/12/18 05:08:52;;;;;;;9.93;3.45;;;8.90;99.90;;;;;;5096543;28;20051;-71
2023/12/18 05:11:19;;;;;;;15.07;3.10;;;8.90;99.90;;;;;;5095553;28;20055;-71
2023/12/18 05:13:45;;;;;;;7.10;2.90;;;8.90;99.90;;;;;;5096135;28;20514;-71
2023/12/18 05:16:13;;;;;;;9.25;3.33;;;8.90;99.90;;;;;;5096285;28;20047;-72
2023/12/18 05:18:40;;;;;;;11.27;3.95;;;8.90;99.90;;;;;;5096751;28;20075;-69
2023/12/18 05:21:06;;;;;;;12.27;4.13;;;8.90;99.90;;;;;;5096180;28;20149;-72
2023/12/18 05:23:33;;;;;;;6.90;3.65;;;8.90;99.90;;;;;;5096064;28;20054;-71
2023/12/18 05:25:58;;;;;;;10.38;2.95;;;8.90;99.90;;;;;;5096042;28;20087;-69
2023/12/18 05:28:25;;;;;;;11.17;3.20;;;8.90;99.90;;;;;;5095920;28;20083;-71
2023/12/18 05:30:51;;;;;;;7.60;2.88;;;8.90;99.90;;;;;;5095717;28;20059;-71
2023/12/18 05:33:17;;;;;;;10.73;3.00;;;8.90;99.90;;;;;;5095945;28;20043;-71
2023/12/18 05:35:43;;;;;;;11.47;3.67;;;8.90;99.90;;;;;;5096277;28;20036;-72
2023/12/18 05:38:08;;;;;;;13.97;3.97;;;8.90;99.90;;;;;;5095921;28;20483;-72
2023/12/18 05:40:35;;;;;;;9.23;3.23;;;8.90;99.90;;;;;;5094677;28;20398;-67
2023/12/18 05:43:01;;;;;;;11.20;3.33;;;8.90;99.90;;;;;;5095655;28;20127;-71
2023/12/18 05:45:27;;;;;;;10.57;3.15;;;8.90;99.90;;;;;;5094388;28;20082;-73
2023/12/18 05:47:53;;;;;;;10.63;3.77;;;8.90;99.90;;;;;;5095555;28;20044;-70
2023/12/18 05:50:18;;;;;;;7.80;3.77;;;8.90;99.90;;;;;;5095911;28;20282;-72
2023/12/18 05:52:44;;;;;;;9.67;3.43;;;8.90;99.90;;;;;;5095547;28;20479;-74
2023/12/18 05:55:10;;;;;;;10.37;3.83;;;8.90;99.90;;;;;;5095461;28;20047;-70
2023/12/18 05:57:37;;;;;;;11.18;3.63;;;8.90;99.90;;;;;;5095523;28;20044;-70
2023/12/18 06:00:04;;;;;;;12.85;4.05;;;8.90;99.90;;;;;;5095261;28;20044;-71
2023/12/18 06:02:30;;;;;;;8.85;3.60;;;8.90;99.90;;;;;;5095134;28;20048;-72
2023/12/18 06:04:55;;;;;;;9.37;4.00;;;8.90;99.90;;;;;;5095370;28;20051;-71
2023/12/18 06:07:21;;;;;;;10.50;4.10;;;8.90;99.90;;;;;;5094723;28;20074;-72
2023/12/18 06:09:47;;;;;;;14.53;4.33;;;8.90;99.90;;;;;;5095379;28;20051;-72
2023/12/18 06:12:12;;;;;;;10.60;3.50;;;8.90;99.90;;;;;;5094682;28;20047;-70
2023/12/18 06:14:38;;;;;;;9.97;3.57;;;8.90;99.90;;;;;;5093906;28;20372;-71
2023/12/18 06:17:04;;;;;;;8.97;3.67;;;8.90;99.90;;;;;;5094554;28;20087;-70
2023/12/18 06:19:30;;;;;;;13.70;3.70;;;8.90;99.90;;;;;;5094977;28;20529;-69
2023/12/18 06:21:56;;;;;;;10.65;4.30;;;8.90;99.90;;;;;;5094955;28;20135;-70
2023/12/18 06:24:22;;;;;;;12.33;4.07;;;8.90;99.90;;;;;;5094818;28;20126;-69
2023/12/18 06:26:47;;;;;;;12.27;3.40;;;8.90;99.90;;;;;;5093410;28;20397;-69
2023/12/18 06:29:13;;;;;;;10.80;3.77;;;8.90;99.90;;;;;;5094700;28;20040;-69
2023/12/18 06:31:39;;;;;;;11.17;3.40;;;8.90;99.90;;;;;;5094711;28;20044;-71
2023/12/18 06:34:04;;;;;;;13.17;4.13;;;8.90;99.90;;;;;;5095110;28;20391;-68
2023/12/18 06:36:30;;;;;;;11.43;3.60;;;8.90;99.90;;;;;;5094658;28;20387;-68
2023/12/18 06:38:56;;;;;;;10.70;3.60;;;8.90;99.90;;;;;;5094129;28;20491;-70
2023/12/18 06:41:21;;;;;;;9.27;3.63;;;8.90;99.90;;;;;;5094466;28;20041;-69
2023/12/18 06:43:47;;;;;;;15.30;5.00;;;9.00;99.90;;;;;;5094515;28;20040;-69
2023/12/18 06:46:13;;;;;;;11.10;3.80;;;9.00;99.90;;;;;;5094431;28;20117;-70
2023/12/18 06:48:40;;;;;;;14.53;4.07;;;8.90;99.90;;;;;;5094480;28;20131;-68
2023/12/18 06:51:09;;;;;;;12.07;3.80;;;8.90;99.90;;;;;;5094505;28;20059;-68
2023/12/18 06:53:34;;;;;;;12.07;3.95;;;9.00;99.90;;;;;;5094608;28;20055;-70
2023/12/18 06:56:00;;;;;;;9.97;3.87;;;9.00;99.90;;;;;;5094188;28;20395;-72
2023/12/18 06:58:26;;;;;;;10.03;4.47;;;9.00;99.90;;;;;;5094135;28;20127;-68
2023/12/18 07:00:52;;;;;;;10.45;4.55;;;8.90;99.90;;;;;;5094065;28;20135;-69
2023/12/18 07:03:17;;;;;;;10.20;3.93;;;8.90;99.90;;;;;;5094206;28;20475;-70
2023/12/18 07:05:43;;;;;;;8.10;4.17;;;9.00;99.90;;;;;;5094024;28;20274;-70
2023/12/18 07:08:09;;;;;;;10.10;4.47;;;9.00;99.90;;;;;;5076532;28;20052;-69
2023/12/18 07:10:34;;;;;;;10.57;3.90;;;9.00;99.90;;;;;;5094087;28;20040;-71
2023/12/18 07:13:00;;;;;;;15.67;4.60;;;9.00;99.90;;;;;;5094001;28;20086;-68
2023/12/18 07:15:26;;;;;;;14.47;4.63;;;9.00;99.90;;;;;;5093849;28;20044;-69
2023/12/18 07:17:52;;;;;;;12.70;4.67;;;9.00;99.90;;;;;;5093967;28;20044;-69
2023/12/18 07:20:18;;;;;;;11.48;4.05;;;9.00;99.90;;;;;;5093465;28;20185;-69
2023/12/18 07:22:44;;;;;;;11.13;5.00;;;9.00;99.90;;;;;;5092146;28;20488;-69
2023/12/18 07:25:10;;;;;;;11.33;4.80;;;9.00;99.90;;;;;;5094151;28;20051;-67
2023/12/18 07:27:36;;;;;;;14.73;5.47;;;9.00;99.90;;;;;;5094047;28;20055;-70
2023/12/18 07:30:05;;;;;;;13.93;5.55;;;8.90;99.90;;;;;;5093625;28;20040;-70
2023/12/18 07:32:31;;;;;;;12.30;4.93;;;9.00;99.90;;;;;;5093996;28;20399;-68
2023/12/18 07:34:59;;;;;;;10.40;4.65;;;8.90;99.90;;;;;;5092622;28;20144;-71
2023/12/18 07:37:29;;;;;;;19.08;5.53;;;8.90;99.90;;;;;;5093216;28;20122;-67
2023/12/18 07:39:59;;;;;;;12.27;5.10;;;8.90;99.90;;;;;;5093511;28;20043;-68
2023/12/18 07:42:25;;;;;;;12.50;4.57;;;9.00;99.90;;;;;;5093431;28;20048;-68
2023/12/18 07:44:52;;;;;;;13.02;5.32;;;9.00;99.90;;;;;;5093606;28;20052;-67
2023/12/18 07:47:18;;;;;;;;;;;8.90;99.90;;;;;;5093054;28;20056;-67
2023/12/18 07:49:44;;;;;;;12.43;5.15;;;8.90;99.90;;;;;;5092402;28;19920;-71
2023/12/18 07:52:10;;;;;;;13.88;5.70;;;8.90;99.90;;;;;;5093510;28;20040;-70
2023/12/18 07:54:35;;;;;;;12.43;5.07;;;8.90;99.90;;;;;;5093537;28;20575;-68
2023/12/18 07:57:04;;;;;;;15.47;6.43;;;8.90;99.90;;;;;;5093129;28;20052;-66
2023/12/18 07:59:30;;;;;;;13.68;5.60;;;8.90;99.90;;;;;;5093844;28;20044;-67
2023/12/18 08:01:55;;;;;;;13.87;5.10;;;8.90;99.90;;;;;;5093152;28;20047;-69
2023/12/18 08:04:21;;;;;;;16.57;5.60;;;9.00;99.90;;;;;;5075733;28;20051;-69
2023/12/18 08:06:53;;;;;;;13.40;4.93;;;8.90;99.90;;;;;;5091958;28;20522;-70
2023/12/18 08:09:19;;;;;;;14.57;5.25;;;8.90;99.90;;;;;;5093351;28;20410;-69
2023/12/18 08:11:44;;;;;;;11.63;5.50;;;8.90;99.90;;;;;;5093109;28;20044;-65
2023/12/18 08:14:10;;;;;;;11.53;4.63;;;9.00;99.90;;;;;;5093437;28;20119;-70
2023/12/18 08:16:36;;;;;;;14.80;5.80;;;9.00;99.90;;;;;;5092996;28;20048;-70
2023/12/18 08:19:02;;;;;;;11.27;4.82;;;9.00;99.90;;;;;;5093238;28;20048;-69
2023/12/18 08:21:27;;;;;;;13.97;5.30;;;9.00;99.90;;;;;;5093467;28;20051;-70
2023/12/18 08:23:54;;;;;;;12.23;5.77;;;9.00;99.90;;;;;;5092276;28;20471;-70
2023/12/18 08:26:19;;;;;;;13.38;5.07;;;9.00;99.90;;;;;;5093019;28;20036;-69
2023/12/18 08:28:45;;;;;;;12.20;5.67;;;9.00;99.90;;;;;;5093404;28;20051;-68
2023/12/18 08:31:11;;;;;;;17.35;5.43;;;9.00;99.90;;;;;;5092261;28;20044;-70
2023/12/18 08:33:41;;;;;;;17.02;5.28;;;9.00;99.90;;;;;;5094187;28;20051;-68
2023/12/18 08:36:07;;;;;;;13.50;5.72;;;9.00;99.90;;;;;;5096937;28;20400;-68
2023/12/18 08:38:33;;;;;;;11.25;5.25;;;9.00;99.90;;;;;;5095703;28;20036;-70
2023/12/18 08:40:59;;;;;;;14.30;5.23;;;9.00;99.90;;;;;;5096804;28;20136;-70
2023/12/18 08:43:24;;;;;;;11.37;5.20;;;9.00;99.90;;;;;;5096863;28;20048;-69
2023/12/18 08:45:50;;;;;;;13.47;5.10;;;9.00;99.90;;;;;;5096843;28;20390;-70
2023/12/18 08:48:16;;;;;;;17.80;6.00;;;9.00;99.90;;;;;;5095379;28;20066;-68
2023/12/18 08:50:42;;;;;;;13.83;5.57;;;9.10;99.90;;;;;;5096618;28;20123;-68
2023/12/18 08:53:08;;;;;;;15.18;5.82;;;9.00;99.90;;;;;;5096549;28;20114;-68
2023/12/18 08:55:38;;;;;;;12.10;5.17;;;9.00;99.90;;;;;;5096125;28;20144;-67
2023/12/18 08:58:08;;;;;;;12.05;5.47;;;9.00;99.90;;;;;;5097169;28;20051;-68
2023/12/18 09:00:34;;;;;;;14.18;5.57;;;9.10;99.90;;;;;;5095559;28;20522;-70
2023/12/18 09:03:00;;;;;;;12.35;5.53;;;9.00;99.90;;;;;;5096502;28;20129;-69
2023/12/18 09:05:26;;;;;;;12.23;5.63;;;9.10;99.90;;;;;;5096438;28;20429;-69
2023/12/18 09:07:51;;;;;;;12.33;6.03;;;9.10;99.90;;;;;;5096439;28;20071;-68
2023/12/18 09:10:18;;;;;;;16.83;6.20;;;9.10;99.90;;;;;;5096096;28;20044;-69
2023/12/18 09:12:44;;;;;;;13.82;5.38;;;9.10;99.90;;;;;;5096397;28;20048;-68
2023/12/18 09:15:10;;;;;;;11.35;5.30;;;9.10;99.90;;;;;;5096263;28;20540;-70
2023/12/18 09:17:38;;;;;;;17.92;6.80;;;9.10;99.90;;;;;;5096068;28;20062;-71
2023/12/18 09:20:04;;;;;;;15.98;5.18;;;9.10;99.90;;;;;;5094927;28;20687;-68
2023/12/18 09:22:30;;;;;;;12.05;5.22;;;9.10;99.90;;;;;;5095968;28;20071;-67
2023/12/18 09:24:56;;;;;;;13.23;4.80;;;9.10;99.90;;;;;;5095038;28;20475;-69
2023/12/18 09:27:21;;;;;;;16.53;5.87;;;9.20;99.90;;;;;;5096025;28;20043;-66
2023/12/18 09:29:47;;;;;;;12.37;5.60;;;9.20;99.90;;;;;;5078518;28;20059;-67
2023/12/18 09:32:13;;;;;;;14.27;5.87;;;9.20;99.90;;;;;;5095871;28;20036;-67
2023/12/18 09:34:39;;;;;;;14.70;5.20;;;9.20;99.90;;;;;;5095960;28;20044;-68
2023/12/18 09:37:05;;;;;;;10.77;5.00;;;9.20;99.90;;;;;;5094351;28;20090;-69
2023/12/18 09:39:31;;;;;;;17.67;5.33;;;9.30;99.90;;;;;;5095634;28;20051;-70
2023/12/18 09:42:04;;;;;;;11.35;4.82;;;9.30;99.90;;;;;;5095711;28;20048;-67
2023/12/18 09:44:31;;;;;;;12.35;5.80;;;9.30;99.90;;;;;;5095673;28;20507;-70
2023/12/18 09:46:59;;;;;;;12.77;5.03;;;9.30;99.90;;;;;;5094733;28;20058;-69
2023/12/18 09:49:25;;;;;;;13.60;5.63;;;9.30;99.90;;;;;;5095667;28;20097;-69
2023/12/18 09:51:53;;;;;;;11.80;5.50;;;9.30;99.90;;;;;;5095375;28;20487;-70
2023/12/18 09:54:21;;;;;;;13.88;5.28;;;9.30;99.90;;;;;;5095286;28;20430;-70
2023/12/18 09:56:48;;;;;;;12.80;5.57;;;9.30;99.90;;;;;;5095591;28;20043;-70
2023/12/18 09:59:17;;;;;;;13.27;5.47;;;9.30;99.90;;;;;;5095512;28;20390;-70
2023/12/18 10:01:46;;;;;;;14.73;5.55;;;9.30;99.90;;;;;;5095334;28;20438;-69
2023/12/18 10:04:12;;;;;;;17.73;6.28;;;9.30;99.90;;;;;;5094120;28;20040;-70
2023/12/18 10:06:39;;;;;;;16.15;5.43;;;9.30;99.90;;;;;;5095202;28;20097;-70
2023/12/18 10:09:14;;;;;;;14.43;6.45;;;9.30;99.90;;;;;;5095311;28;20127;-73
2023/12/18 10:11:44;;;;;;;16.15;6.68;;;9.30;99.90;;;;;;5095252;28;20052;-67
2023/12/18 10:14:13;;;;;;;16.35;5.70;;;9.30;99.90;;;;;;5095077;28;20052;-68
2023/12/18 10:16:39;;;;;;;15.48;6.43;;;9.30;99.90;;;;;;5094886;28;20448;-70
2023/12/18 10:19:05;;;;;;;14.32;5.93;;;9.30;99.90;;;;;;5093415;28;20143;-70
2023/12/18 10:21:31;;;;;;;13.63;6.47;;;9.30;99.90;;;;;;5095698;28;20056;-70
2023/12/18 10:23:57;;;;;;;20.40;7.17;;;9.30;99.90;;;;;;5094985;28;20448;-70
2023/12/18 10:26:23;;;;;;;14.93;6.80;;;9.30;99.90;;;;;;5094932;28;20047;-74
2023/12/18 10:28:52;;;;;;;14.93;6.60;;;9.30;99.90;;;;;;5094975;28;20043;-73
2023/12/18 10:31:19;;;;;;;14.57;6.72;;;9.30;99.90;;;;;;5094866;28;20131;-71
2023/12/18 10:33:45;;;;;;;18.50;7.15;;;9.30;99.90;;;;;;5094725;28;20047;-71
2023/12/18 10:36:11;;;;;;;16.20;6.88;;;9.30;99.90;;;;;;5094760;28;20044;-69
2023/12/18 10:38:41;;;;;;;13.30;5.88;;;9.30;99.90;;;;;;5094689;28;20131;-71
2023/12/18 10:41:09;;;;;;;13.85;7.03;;;9.30;99.90;;;;;;5094662;28;20051;-72
2023/12/18 10:43:36;;;;;;;16.77;7.22;;;9.30;99.90;;;;;;5094542;28;20050;-71
2023/12/18 10:46:03;;;;;;;16.92;7.40;;;9.30;99.90;;;;;;5094423;28;20101;-72
2023/12/18 10:48:29;;;;;;;16.40;7.03;;;9.30;99.90;;;;;;5094565;28;20051;-70
2023/12/18 10:50:57;;;;;;;22.30;9.02;;;9.30;99.90;;;;;;5093619;28;20051;-69
2023/12/18 10:53:24;;;;;;;17.05;8.15;;;9.30;99.90;;;;;;5094778;28;20083;-70
2023/12/18 10:55:50;;;;;;;;;;;9.20;99.90;;;;;;5093831;28;20048;-72
2023/12/18 10:58:20;;;;;;;16.35;8.45;;;9.30;99.90;;;;;;5094275;28;19927;-72
2023/12/18 11:00:46;;;;;;;20.42;7.78;;;9.20;99.90;;;;;;5094356;28;20089;-70
2023/12/18 11:03:14;;;;;;;19.02;8.23;;;9.20;99.90;;;;;;5094452;28;20040;-69
2023/12/18 11:05:41;;;;;;;14.98;7.95;;;9.20;99.90;;;;;;5094625;28;20040;-68
2023/12/18 11:08:07;;;;;;;16.83;7.82;;;9.20;99.90;;;;;;5094396;28;20050;-67
2023/12/18 11:10:33;;;;;;;17.83;8.77;;;9.20;99.90;;;;;;5059713;28;20048;-69
2023/12/18 11:13:18;;;;;;;20.35;9.10;;;9.20;99.90;;;;;;5094200;28;20339;-70
2023/12/18 11:15:52;;;;;;;16.80;7.40;;;9.10;99.90;;;;;;5094053;28;20040;-68
2023/12/18 11:18:26;;;;;;;17.02;8.07;;;9.10;99.90;;;;;;5093878;28;20060;-70
2023/12/18 11:20:53;;;;;;;16.95;8.13;;;9.20;99.90;;;;;;5094315;28;20135;-70
2023/12/18 11:23:18;;;;;;;21.70;7.97;;;9.10;99.90;;;;;;5092883;28;20140;-68
2023/12/18 11:25:50;;;;;;;20.23;8.07;;;9.10;99.90;;;;;;5093673;28;20079;-69
2023/12/18 11:28:16;;;;;;;19.33;8.25;;;9.10;99.90;;;;;;5094027;28;20052;-69
2023/12/18 11:30:43;;;;;;;15.03;8.17;;;9.10;99.90;;;;;;5093903;28;20055;-73
2023/12/18 11:33:10;;;;;;;16.08;7.53;;;9.10;99.90;;;;;;5094127;28;20047;-68
2023/12/18 11:35:38;;;;;;;15.65;7.72;;;9.20;99.90;;;;;;5092747;28;20141;-72
2023/12/18 11:38:05;;;;;;;17.83;6.72;;;9.20;99.90;;;;;;5093700;28;20052;-68
2023/12/18 11:40:31;;;;;;;17.08;7.78;;;9.20;99.90;;;;;;5093500;28;20063;-69
2023/12/18 11:42:59;;;;;;;16.37;7.87;;;9.20;99.90;;;;;;5093802;28;20395;-72
2023/12/18 11:45:26;;;;;;;19.20;8.88;;;9.20;99.90;;;;;;5093746;28;20126;-69
2023/12/18 11:47:52;;;;;;;19.00;8.63;;;9.20;99.90;;;;;;5093949;28;20473;-68
2023/12/18 11:50:24;;;;;;;15.55;8.07;;;9.30;99.90;;;;;;5093732;28;20083;-69
2023/12/18 11:52:50;;;;;;;21.35;8.43;;;9.30;99.90;;;;;;5093654;28;20090;-69
2023/12/18 11:55:42;;;;;;;17.75;7.75;;;9.30;99.90;;;;;;5093590;28;20113;-70
2023/12/18 11:58:08;;;;;;;17.88;8.00;;;9.30;99.90;;;;;;5093556;28;20048;-68
2023/12/18 12:00:35;;;;;;;17.73;8.15;;;9.30;99.90;;;;;;5093443;28;20075;-70
2023/12/18 12:03:02;;;;;;;18.45;7.35;;;9.30;99.90;;;;;;5093631;28;20055;-66
2023/12/18 12:05:38;;;;;;;17.50;8.73;;;9.30;99.90;;;;;;5093298;28;20497;-68
2023/12/18 12:08:04;;;;;;;15.88;7.50;;;9.30;99.90;;;;;;5093760;28;20491;-69
2023/12/18 12:10:30;;;;;;;14.17;7.63;;;9.30;99.90;;;;;;5097377;28;20160;-70
2023/12/18 12:12:57;;;;;;;16.43;7.73;;;9.30;99.90;;;;;;5096311;28;20105;-70
2023/12/18 12:15:27;;;;;;;17.52;7.75;;;9.30;99.90;;;;;;5096695;28;20387;-72
2023/12/18 12:18:06;;;;;;;18.63;7.43;;;9.30;99.90;;;;;;5097452;28;20059;-69
2023/12/18 12:20:34;;;;;;;14.82;6.93;;;9.30;99.90;;;;;;5096288;28;20044;-72
2023/12/18 12:23:00;;;;;;;14.75;7.25;;;9.30;99.90;;;;;;5097446;28;20083;-70
2023/12/18 12:25:26;;;;;;;17.70;7.93;;;9.30;99.90;;;;;;5097265;28;20102;-69
2023/12/18 12:27:52;;;;;;;14.97;7.93;;;9.30;99.90;;;;;;5097283;28;20051;-71
2023/12/18 12:30:17;;;;;;;18.17;6.80;;;9.40;99.90;;;;;;5097052;28;20077;-70
2023/12/18 12:32:45;;;;;;;15.20;6.37;;;9.40;99.90;;;;;;5096876;28;20445;-69
2023/12/18 12:35:11;;;;;;;16.02;7.32;;;9.40;99.90;;;;;;5097195;28;20048;-67
2023/12/18 12:37:37;;;;;;;18.95;7.75;;;9.40;99.90;;;;;;5096782;28;20061;-70
2023/12/18 12:40:05;;;;;;;11.37;6.07;;;9.40;99.90;;;;;;5096945;28;20044;-71
2023/12/18 12:42:32;;;;;;;13.13;6.82;;;9.40;99.90;;;;;;5095676;28;20361;-73
2023/12/18 12:44:58;;;;;;;13.50;6.72;;;9.40;99.90;;;;;;5096974;28;20505;-72
2023/12/18 12:47:26;;;;;;;13.13;6.53;;;9.50;99.90;;;;;;5096890;28;20185;-70